sensor_id;sensor_type;location;lat;lon;timestamp;pressure;altitude;pressure_sealevel;temperature;humidity
49827;BME280;35715;51.570;6.036;2022-11-11T00:01:08;102760.59;;;10.22;81.82
49827;BME280;35715;51.570;6.036;2022-11-11T00:03:34;102761.38;;;10.21;81.92
49827;BME280;35715;51.570;6.036;2022-11-11T00:06:05;102762.13;;;10.20;81.94
49827;BME280;35715;51.570;6.036;2022-11-11T00:08:31;102759.25;;;10.17;82.42
49827;BME280;35715;51.570;6.036;2022-11-11T00:11:04;102765.94;;;10.15;82.40
49827;BME280;35715;51.570;6.036;2022-11-11T00:13:30;102761.38;;;10.12;82.59
49827;BME280;35715;51.570;6.036;2022-11-11T00:16:09;102761.81;;;10.08;82.49
49827;BME280;35715;51.570;6.036;2022-11-11T00:18:35;102773.06;;;10.08;82.57
49827;BME280;35715;51.570;6.036;2022-11-11T00:21:19;102763.75;;;10.02;82.77
49827;BME280;35715;51.570;6.036;2022-11-11T00:24:19;102760.28;;;10.01;82.73
49827;BME280;35715;51.570;6.036;2022-11-11T00:27:32;102749.97;;;10.01;82.91
49827;BME280;35715;51.570;6.036;2022-11-11T00:30:17;102766.19;;;10.00;82.46
49827;BME280;35715;51.570;6.036;2022-11-11T00:32:43;102759.19;;;9.99;82.81
49827;BME280;35715;51.570;6.036;2022-11-11T00:35:12;102764.19;;;9.98;82.60
49827;BME280;35715;51.570;6.036;2022-11-11T00:38:15;102769.97;;;9.95;82.44
49827;BME280;35715;51.570;6.036;2022-11-11T00:41:00;102767.84;;;9.91;82.73
49827;BME280;35715;51.570;6.036;2022-11-11T00:43:28;102766.00;;;9.90;83.06
49827;BME280;35715;51.570;6.036;2022-11-11T00:46:03;102775.28;;;9.88;83.26
49827;BME280;35715;51.570;6.036;2022-11-11T00:48:58;102781.78;;;9.84;83.44
49827;BME280;35715;51.570;6.036;2022-11-11T00:51:59;102787.53;;;9.82;83.50
49827;BME280;35715;51.570;6.036;2022-11-11T00:54:24;102787.38;;;9.80;83.52
49827;BME280;35715;51.570;6.036;2022-11-11T00:56:50;102787.38;;;9.80;83.91
49827;BME280;35715;51.570;6.036;2022-11-11T00:59:15;102787.53;;;9.82;83.96
49827;BME280;35715;51.570;6.036;2022-11-11T01:01:40;102786.78;;;9.83;84.13
49827;BME280;35715;51.570;6.036;2022-11-11T01:04:06;102794.69;;;9.84;84.00
49827;BME280;35715;51.570;6.036;2022-11-11T01:06:31;102792.09;;;9.84;84.15
49827;BME280;35715;51.570;6.036;2022-11-11T01:08:57;102798.91;;;9.84;84.06
49827;BME280;35715;51.570;6.036;2022-11-11T01:11:23;102804.84;;;9.83;84.24
49827;BME280;35715;51.570;6.036;2022-11-11T01:13:49;102804.84;;;9.83;84.41
49827;BME280;35715;51.570;6.036;2022-11-11T01:16:21;102815.16;;;9.83;84.69
49827;BME280;35715;51.570;6.036;2022-11-11T01:18:48;102807.88;;;9.87;84.68
49827;BME280;35715;51.570;6.036;2022-11-11T01:21:18;102806.84;;;9.94;84.83
49827;BME280;35715;51.570;6.036;2022-11-11T01:23:45;102809.72;;;9.97;85.10
49827;BME280;35715;51.570;6.036;2022-11-11T01:26:23;102812.03;;;10.03;84.99
49827;BME280;35715;51.570;6.036;2022-11-11T01:28:51;102809.31;;;10.10;85.28
49827;BME280;35715;51.570;6.036;2022-11-11T01:31:19;102805.06;;;10.10;85.09
49827;BME280;35715;51.570;6.036;2022-11-11T01:33:45;102810.84;;;10.17;85.12
49827;BME280;35715;51.570;6.036;2022-11-11T01:36:17;102804.16;;;10.19;84.98
49827;BME280;35715;51.570;6.036;2022-11-11T01:38:48;102811.28;;;10.21;85.22
49827;BME280;35715;51.570;6.036;2022-11-11T01:41:14;102810.81;;;10.08;86.65
49827;BME280;35715;51.570;6.036;2022-11-11T01:44:39;102802.94;;;10.15;85.62
49827;BME280;35715;51.570;6.036;2022-11-11T01:47:06;102795.78;;;10.12;86.20
49827;BME280;35715;51.570;6.036;2022-11-11T01:52:25;102791.09;;;10.17;86.27
49827;BME280;35715;51.570;6.036;2022-11-11T01:57:29;102787.47;;;10.24;86.50
49827;BME280;35715;51.570;6.036;2022-11-11T02:00:01;102780.78;;;10.26;86.32
49827;BME280;35715;51.570;6.036;2022-11-11T02:02:40;102785.97;;;10.26;86.84
49827;BME280;35715;51.570;6.036;2022-11-11T02:05:10;102790.38;;;10.27;86.64
49827;BME280;35715;51.570;6.036;2022-11-11T02:07:56;102791.91;;;10.34;86.64
49827;BME280;35715;51.570;6.036;2022-11-11T02:10:24;102793.41;;;10.32;86.81
49827;BME280;35715;51.570;6.036;2022-11-11T02:12:50;102783.69;;;10.29;87.11
49827;BME280;35715;51.570;6.036;2022-11-11T02:15:46;102789.00;;;10.30;86.82
49827;BME280;35715;51.570;6.036;2022-11-11T02:18:11;102785.25;;;10.36;86.74
49827;BME280;35715;51.570;6.036;2022-11-11T02:20:39;102778.72;;;10.39;86.68
49827;BME280;35715;51.570;6.036;2022-11-11T02:23:11;102770.38;;;10.33;87.05
49827;BME280;35715;51.570;6.036;2022-11-11T02:25:52;102769.13;;;10.29;87.23
49827;BME280;35715;51.570;6.036;2022-11-11T02:28:23;102774.00;;;10.35;87.27
49827;BME280;35715;51.570;6.036;2022-11-11T02:30:49;102765.81;;;10.39;86.96
49827;BME280;35715;51.570;6.036;2022-11-11T02:33:15;102769.94;;;10.37;87.17
49827;BME280;35715;51.570;6.036;2022-11-11T02:35:48;102754.28;;;10.36;86.89
49827;BME280;35715;51.570;6.036;2022-11-11T02:38:22;102753.22;;;10.34;87.59
49827;BME280;35715;51.570;6.036;2022-11-11T02:40:48;102749.72;;;10.33;87.30
49827;BME280;35715;51.570;6.036;2022-11-11T02:43:33;102755.78;;;10.34;87.27
49827;BME280;35715;51.570;6.036;2022-11-11T02:46:03;102753.50;;;10.28;87.76
49827;BME280;35715;51.570;6.036;2022-11-11T02:48:30;102756.53;;;10.24;88.00
49827;BME280;35715;51.570;6.036;2022-11-11T02:50:56;102760.91;;;10.25;88.21
49827;BME280;35715;51.570;6.036;2022-11-11T02:53:22;102767.88;;;10.17;88.11
49827;BME280;35715;51.570;6.036;2022-11-11T02:56:23;102771.53;;;10.10;87.51
49827;BME280;35715;51.570;6.036;2022-11-11T02:59:07;102775.44;;;9.98;87.38
49827;BME280;35715;51.570;6.036;2022-11-11T03:01:32;102779.84;;;9.90;87.15
49827;BME280;35715;51.570;6.036;2022-11-11T03:03:57;102777.69;;;9.86;86.96
49827;BME280;35715;51.570;6.036;2022-11-11T03:06:41;102766.59;;;9.79;86.75
49827;BME280;35715;51.570;6.036;2022-11-11T03:09:06;102764.31;;;9.73;86.64
49827;BME280;35715;51.570;6.036;2022-11-11T03:11:32;102754.88;;;9.65;86.92
49827;BME280;35715;51.570;6.036;2022-11-11T03:13:59;102766.53;;;9.61;87.26
49827;BME280;35715;51.570;6.036;2022-11-11T03:16:25;102761.84;;;9.57;86.89
49827;BME280;35715;51.570;6.036;2022-11-11T03:19:09;102767.28;;;9.51;87.10
49827;BME280;35715;51.570;6.036;2022-11-11T03:21:34;102770.84;;;9.45;87.17
49827;BME280;35715;51.570;6.036;2022-11-11T03:24:00;102777.53;;;9.43;87.26
49827;BME280;35715;51.570;6.036;2022-11-11T03:26:27;102787.94;;;9.35;87.58
49827;BME280;35715;51.570;6.036;2022-11-11T03:28:53;102792.78;;;9.32;87.77
49827;BME280;35715;51.570;6.036;2022-11-11T03:31:18;102790.66;;;9.28;87.92
49827;BME280;35715;51.570;6.036;2022-11-11T03:33:44;102785.19;;;9.25;88.21
49827;BME280;35715;51.570;6.036;2022-11-11T03:36:09;102779.41;;;9.28;88.15
49827;BME280;35715;51.570;6.036;2022-11-11T03:38:35;102781.84;;;9.26;88.22
49827;BME280;35715;51.570;6.036;2022-11-11T03:41:00;102789.56;;;9.26;88.08
49827;BME280;35715;51.570;6.036;2022-11-11T03:43:29;102790.19;;;9.23;87.74
49827;BME280;35715;51.570;6.036;2022-11-11T03:46:00;102793.19;;;9.19;88.38
49827;BME280;35715;51.570;6.036;2022-11-11T03:48:28;102799.41;;;9.21;88.10
49827;BME280;35715;51.570;6.036;2022-11-11T03:50:54;102795.75;;;9.19;88.09
49827;BME280;35715;51.570;6.036;2022-11-11T03:53:20;102796.50;;;9.18;88.23
49827;BME280;35715;51.570;6.036;2022-11-11T03:55:55;102799.81;;;9.17;88.22
49827;BME280;35715;51.570;6.036;2022-11-11T03:58:20;102796.19;;;9.15;88.15
49827;BME280;35715;51.570;6.036;2022-11-11T04:00:45;102796.44;;;9.10;88.17
49827;BME280;35715;51.570;6.036;2022-11-11T04:06:08;102800.63;;;9.00;88.66
49827;BME280;35715;51.570;6.036;2022-11-11T04:08:52;102801.97;;;8.97;89.11
49827;BME280;35715;51.570;6.036;2022-11-11T04:11:41;102799.41;;;8.97;88.92
49827;BME280;35715;51.570;6.036;2022-11-11T04:14:10;102794.25;;;8.97;88.75
49827;BME280;35715;51.570;6.036;2022-11-11T04:16:55;102801.50;;;8.92;89.24
49827;BME280;35715;51.570;6.036;2022-11-11T04:19:20;102801.50;;;8.92;88.77
49827;BME280;35715;51.570;6.036;2022-11-11T04:22:04;102797.09;;;8.91;88.63
49827;BME280;35715;51.570;6.036;2022-11-11T04:24:30;102795.25;;;8.90;88.75
49827;BME280;35715;51.570;6.036;2022-11-11T04:27:25;102795.03;;;8.80;89.01
49827;BME280;35715;51.570;6.036;2022-11-11T04:29:50;102783.97;;;8.81;89.22
49827;BME280;35715;51.570;6.036;2022-11-11T04:32:18;102783.97;;;8.81;89.29
49827;BME280;35715;51.570;6.036;2022-11-11T04:35:11;102788.22;;;8.80;89.30
49827;BME280;35715;51.570;6.036;2022-11-11T04:37:47;102792.47;;;8.80;89.46
49827;BME280;35715;51.570;6.036;2022-11-11T04:40:16;102783.66;;;8.78;89.43
49827;BME280;35715;51.570;6.036;2022-11-11T04:43:00;102790.31;;;8.76;89.56
49827;BME280;35715;51.570;6.036;2022-11-11T04:45:39;102783.31;;;8.75;89.61
49827;BME280;35715;51.570;6.036;2022-11-11T04:48:06;102789.25;;;8.74;89.48
49827;BME280;35715;51.570;6.036;2022-11-11T04:50:37;102777.84;;;8.72;89.46
49827;BME280;35715;51.570;6.036;2022-11-11T04:53:07;102771.66;;;8.69;89.72
49827;BME280;35715;51.570;6.036;2022-11-11T04:55:45;102779.38;;;8.69;89.59
49827;BME280;35715;51.570;6.036;2022-11-11T04:58:34;102782.34;;;8.65;89.65
49827;BME280;35715;51.570;6.036;2022-11-11T05:01:00;102793.38;;;8.64;89.49
49827;BME280;35715;51.570;6.036;2022-11-11T05:03:26;102788.41;;;8.66;89.50
49827;BME280;35715;51.570;6.036;2022-11-11T05:06:11;102795.06;;;8.64;89.46
49827;BME280;35715;51.570;6.036;2022-11-11T05:08:58;102792.00;;;8.59;89.80
49827;BME280;35715;51.570;6.036;2022-11-11T05:11:26;102794.56;;;8.59;89.87
49827;BME280;35715;51.570;6.036;2022-11-11T05:13:53;102795.31;;;8.58;89.63
49827;BME280;35715;51.570;6.036;2022-11-11T05:16:41;102794.25;;;8.56;89.63
49827;BME280;35715;51.570;6.036;2022-11-11T05:19:25;102794.81;;;8.53;89.59
49827;BME280;35715;51.570;6.036;2022-11-11T05:25:11;102801.78;;;8.55;89.38
49827;BME280;35715;51.570;6.036;2022-11-11T05:27:52;102802.38;;;8.52;89.64
49827;BME280;35715;51.570;6.036;2022-11-11T05:30:18;102805.72;;;8.51;89.54
49827;BME280;35715;51.570;6.036;2022-11-11T05:32:45;102808.28;;;8.51;89.66
49827;BME280;35715;51.570;6.036;2022-11-11T05:35:23;102802.81;;;8.48;89.75
49827;BME280;35715;51.570;6.036;2022-11-11T05:37:49;102809.03;;;8.50;89.98
49827;BME280;35715;51.570;6.036;2022-11-11T05:40:33;102809.03;;;8.50;90.08
49827;BME280;35715;51.570;6.036;2022-11-11T05:42:58;102809.03;;;8.50;89.82
49827;BME280;35715;51.570;6.036;2022-11-11T05:45:32;102807.78;;;8.46;89.88
49827;BME280;35715;51.570;6.036;2022-11-11T05:48:01;102809.44;;;8.46;89.88
49827;BME280;35715;51.570;6.036;2022-11-11T05:50:27;102804.28;;;8.46;89.87
49827;BME280;35715;51.570;6.036;2022-11-11T05:52:53;102809.75;;;8.49;89.68
49827;BME280;35715;51.570;6.036;2022-11-11T05:55:30;102804.44;;;8.47;89.54
49827;BME280;35715;51.570;6.036;2022-11-11T05:57:55;102808.53;;;8.45;89.78
49827;BME280;35715;51.570;6.036;2022-11-11T06:00:21;102806.13;;;8.47;89.77
49827;BME280;35715;51.570;6.036;2022-11-11T06:02:46;102803.56;;;8.47;89.79
49827;BME280;35715;51.570;6.036;2022-11-11T06:05:19;102805.38;;;8.48;89.53
49827;BME280;35715;51.570;6.036;2022-11-11T06:07:44;102805.78;;;8.44;89.65
49827;BME280;35715;51.570;6.036;2022-11-11T06:10:09;102810.94;;;8.44;89.75
49827;BME280;35715;51.570;6.036;2022-11-11T06:12:53;102821.22;;;8.44;89.64
49827;BME280;35715;51.570;6.036;2022-11-11T06:15:51;102821.66;;;8.32;89.88
49827;BME280;35715;51.570;6.036;2022-11-11T06:18:16;102829.56;;;8.34;89.48
49827;BME280;35715;51.570;6.036;2022-11-11T06:20:42;102838.59;;;8.30;90.06
49827;BME280;35715;51.570;6.036;2022-11-11T06:23:07;102836.03;;;8.30;90.20
49827;BME280;35715;51.570;6.036;2022-11-11T06:25:33;102845.41;;;8.30;89.88
49827;BME280;35715;51.570;6.036;2022-11-11T06:28:17;102839.63;;;8.24;90.45
49827;BME280;35715;51.570;6.036;2022-11-11T06:30:44;102842.19;;;8.24;90.50
49827;BME280;35715;51.570;6.036;2022-11-11T06:33:10;102837.22;;;8.25;90.57
49827;BME280;35715;51.570;6.036;2022-11-11T06:35:38;102847.50;;;8.25;90.40
49827;BME280;35715;51.570;6.036;2022-11-11T06:38:05;102853.19;;;8.23;90.53
49827;BME280;35715;51.570;6.036;2022-11-11T06:40:31;102852.47;;;8.24;90.56
49827;BME280;35715;51.570;6.036;2022-11-11T06:42:57;102857.84;;;8.18;90.67
49827;BME280;35715;51.570;6.036;2022-11-11T06:45:24;102864.06;;;8.20;90.88
49827;BME280;35715;51.570;6.036;2022-11-11T06:47:49;102860.41;;;8.18;90.79
49827;BME280;35715;51.570;6.036;2022-11-11T06:50:15;102865.72;;;8.20;90.87
49827;BME280;35715;51.570;6.036;2022-11-11T06:52:41;102860.59;;;8.20;90.77
49827;BME280;35715;51.570;6.036;2022-11-11T06:55:17;102871.78;;;8.20;90.53
49827;BME280;35715;51.570;6.036;2022-11-11T06:57:43;102868.47;;;8.21;90.49
49827;BME280;35715;51.570;6.036;2022-11-11T07:00:09;102860.59;;;8.20;90.42
49827;BME280;35715;51.570;6.036;2022-11-11T07:02:34;102874.34;;;8.20;90.38
49827;BME280;35715;51.570;6.036;2022-11-11T07:05:12;102869.03;;;8.18;90.53
49827;BME280;35715;51.570;6.036;2022-11-11T07:07:37;102869.19;;;8.20;90.51
49827;BME280;35715;51.570;6.036;2022-11-11T07:10:03;102861.16;;;8.17;90.77
49827;BME280;35715;51.570;6.036;2022-11-11T07:12:31;102864.81;;;8.19;90.63
49827;BME280;35715;51.570;6.036;2022-11-11T07:14:56;102866.47;;;8.18;90.59
49827;BME280;35715;51.570;6.036;2022-11-11T07:17:22;102869.81;;;8.17;90.83
49827;BME280;35715;51.570;6.036;2022-11-11T07:19:47;102874.56;;;8.14;91.06
49827;BME280;35715;51.570;6.036;2022-11-11T07:22:13;102866.13;;;8.15;90.58
49827;BME280;35715;51.570;6.036;2022-11-11T07:24:38;102878.59;;;8.20;91.05
49827;BME280;35715;51.570;6.036;2022-11-11T07:27:06;102871.03;;;8.21;90.94
49827;BME280;35715;51.570;6.036;2022-11-11T07:29:31;102872.38;;;8.17;91.42
49827;BME280;35715;51.570;6.036;2022-11-11T07:31:56;102881.50;;;8.23;91.53
49827;BME280;35715;51.570;6.036;2022-11-11T07:34:22;102881.56;;;8.15;92.04
49827;BME280;35715;51.570;6.036;2022-11-11T07:36:48;102883.00;;;8.21;91.86
49827;BME280;35715;51.570;6.036;2022-11-11T07:39:13;102882.22;;;8.22;91.77
49827;BME280;35715;51.570;6.036;2022-11-11T07:41:39;102881.50;;;8.23;91.68
49827;BME280;35715;51.570;6.036;2022-11-11T07:44:04;102882.16;;;8.29;91.28
49827;BME280;35715;51.570;6.036;2022-11-11T07:46:36;102878.84;;;8.30;91.52
49827;BME280;35715;51.570;6.036;2022-11-11T07:49:02;102890.38;;;8.33;91.57
49827;BME280;35715;51.570;6.036;2022-11-11T07:51:27;102886.31;;;8.35;91.51
49827;BME280;35715;51.570;6.036;2022-11-11T07:53:54;102887.75;;;8.41;91.43
49827;BME280;35715;51.570;6.036;2022-11-11T07:56:20;102897.41;;;8.50;91.14
49827;BME280;35715;51.570;6.036;2022-11-11T07:58:45;102906.38;;;8.54;91.31
49827;BME280;35715;51.570;6.036;2022-11-11T08:01:12;102892.50;;;8.61;90.89
49827;BME280;35715;51.570;6.036;2022-11-11T08:03:37;102896.75;;;8.60;90.54
49827;BME280;35715;51.570;6.036;2022-11-11T08:06:20;102901.97;;;8.69;90.30
49827;BME280;35715;51.570;6.036;2022-11-11T08:08:48;102899.91;;;8.74;90.08
49827;BME280;35715;51.570;6.036;2022-11-11T08:11:14;102912.19;;;8.76;90.07
49827;BME280;35715;51.570;6.036;2022-11-11T08:13:42;102912.69;;;8.81;89.60
49827;BME280;35715;51.570;6.036;2022-11-11T08:16:12;102914.84;;;8.85;89.44
49827;BME280;35715;51.570;6.036;2022-11-11T08:18:39;102918.31;;;8.85;88.50
49827;BME280;35715;51.570;6.036;2022-11-11T08:21:05;102921.06;;;8.87;89.00
49827;BME280;35715;51.570;6.036;2022-11-11T08:23:33;102921.56;;;8.92;89.16
49827;BME280;35715;51.570;6.036;2022-11-11T08:26:09;102929.97;;;8.98;89.14
49827;BME280;35715;51.570;6.036;2022-11-11T08:28:35;102925.63;;;9.05;89.17
49827;BME280;35715;51.570;6.036;2022-11-11T08:34:07;102932.75;;;9.24;88.61
49827;BME280;35715;51.570;6.036;2022-11-11T08:36:35;102928.97;;;9.29;88.65
49827;BME280;35715;51.570;6.036;2022-11-11T08:39:05;102925.41;;;9.36;88.73
49827;BME280;35715;51.570;6.036;2022-11-11T08:41:30;102927.28;;;9.46;88.56
49827;BME280;35715;51.570;6.036;2022-11-11T08:43:56;102937.66;;;9.54;88.33
49827;BME280;35715;51.570;6.036;2022-11-11T08:46:22;102928.91;;;9.61;87.70
49827;BME280;35715;51.570;6.036;2022-11-11T08:48:48;102927.75;;;9.66;87.49
49827;BME280;35715;51.570;6.036;2022-11-11T08:51:14;102929.75;;;9.77;87.53
49827;BME280;35715;51.570;6.036;2022-11-11T08:53:40;102927.97;;;9.85;86.85
49827;BME280;35715;51.570;6.036;2022-11-11T08:56:07;102929.53;;;9.92;86.57
49827;BME280;35715;51.570;6.036;2022-11-11T08:58:35;102935.34;;;9.98;86.10
49827;BME280;35715;51.570;6.036;2022-11-11T09:01:04;102928.97;;;10.03;86.03
49827;BME280;35715;51.570;6.036;2022-11-11T09:03:53;102934.28;;;10.05;85.32
49827;BME280;35715;51.570;6.036;2022-11-11T09:08:54;102937.28;;;10.25;85.08
49827;BME280;35715;51.570;6.036;2022-11-11T09:11:19;102935.91;;;10.29;84.89
49827;BME280;35715;51.570;6.036;2022-11-11T09:13:48;102939.47;;;10.38;84.30
49827;BME280;35715;51.570;6.036;2022-11-11T09:16:14;102934.91;;;10.44;84.00
49827;BME280;35715;51.570;6.036;2022-11-11T09:18:39;102939.66;;;10.48;83.93
49827;BME280;35715;51.570;6.036;2022-11-11T09:21:05;102936.00;;;10.46;83.39
49827;BME280;35715;51.570;6.036;2022-11-11T09:23:31;102945.44;;;10.55;83.19
49827;BME280;35715;51.570;6.036;2022-11-11T09:26:00;102947.13;;;10.63;82.86
49827;BME280;35715;51.570;6.036;2022-11-11T09:28:33;102936.50;;;10.69;82.47
49827;BME280;35715;51.570;6.036;2022-11-11T09:31:19;102949.44;;;10.77;82.52
49827;BME280;35715;51.570;6.036;2022-11-11T09:33:45;102937.75;;;10.81;81.86
49827;BME280;35715;51.570;6.036;2022-11-11T09:36:14;102943.69;;;10.89;81.39
49827;BME280;35715;51.570;6.036;2022-11-11T09:38:39;102957.22;;;10.95;81.37
49827;BME280;35715;51.570;6.036;2022-11-11T09:41:14;102949.78;;;11.07;81.26
49827;BME280;35715;51.570;6.036;2022-11-11T09:43:49;102951.75;;;11.18;81.17
49827;BME280;35715;51.570;6.036;2022-11-11T09:46:44;102952.06;;;11.30;79.69
49827;BME280;35715;51.570;6.036;2022-11-11T09:52:20;102964.94;;;11.74;79.41
49827;BME280;35715;51.570;6.036;2022-11-11T09:54:55;102965.03;;;11.93;78.13
49827;BME280;35715;51.570;6.036;2022-11-11T09:57:36;102973.81;;;12.12;77.37
49827;BME280;35715;51.570;6.036;2022-11-11T10:00:16;102967.06;;;12.23;77.34
49827;BME280;35715;51.570;6.036;2022-11-11T10:02:56;102965.78;;;12.37;76.85
49827;BME280;35715;51.570;6.036;2022-11-11T10:05:33;102955.97;;;12.52;76.25
49827;BME280;35715;51.570;6.036;2022-11-11T10:08:12;102960.22;;;12.79;75.54
49827;BME280;35715;51.570;6.036;2022-11-11T10:10:47;102959.47;;;13.18;73.61
49827;BME280;35715;51.570;6.036;2022-11-11T10:13:16;102961.97;;;13.65;71.50
49827;BME280;35715;51.570;6.036;2022-11-11T10:21:13;102963.41;;;14.71;67.20
49827;BME280;35715;51.570;6.036;2022-11-11T10:23:45;102966.44;;;14.76;65.56
49827;BME280;35715;51.570;6.036;2022-11-11T10:28:45;102968.03;;;15.37;64.35
49827;BME280;35715;51.570;6.036;2022-11-11T10:31:20;102957.72;;;15.49;63.59
49827;BME280;35715;51.570;6.036;2022-11-11T10:36:27;102952.66;;;15.51;61.50
49827;BME280;35715;51.570;6.036;2022-11-11T10:38:58;102961.06;;;15.58;62.04
49827;BME280;35715;51.570;6.036;2022-11-11T10:41:47;102959.94;;;15.55;61.31
49827;BME280;35715;51.570;6.036;2022-11-11T10:44:31;102949.38;;;15.53;61.78
49827;BME280;35715;51.570;6.036;2022-11-11T10:49:30;102951.16;;;15.32;61.97
49827;BME280;35715;51.570;6.036;2022-11-11T10:52:08;102959.59;;;15.72;62.40
49827;BME280;35715;51.570;6.036;2022-11-11T11:00:25;102958.06;;;15.96;61.71
49827;BME280;35715;51.570;6.036;2022-11-11T11:06:02;102963.78;;;15.81;60.34
49827;BME280;35715;51.570;6.036;2022-11-11T11:08:33;102961.03;;;16.01;61.10
49827;BME280;35715;51.570;6.036;2022-11-11T11:11:13;102954.66;;;16.08;61.09
49827;BME280;35715;51.570;6.036;2022-11-11T11:14:02;102952.53;;;16.14;60.70
49827;BME280;35715;51.570;6.036;2022-11-11T11:16:32;102955.59;;;15.98;59.87
49827;BME280;35715;51.570;6.036;2022-11-11T11:19:20;102950.16;;;15.95;60.12
49827;BME280;35715;51.570;6.036;2022-11-11T11:21:56;102948.41;;;15.84;60.38
49827;BME280;35715;51.570;6.036;2022-11-11T11:26:49;102947.66;;;15.64;61.09
49827;BME280;35715;51.570;6.036;2022-11-11T11:29:31;102944.81;;;15.61;61.00
49827;BME280;35715;51.570;6.036;2022-11-11T11:32:17;102943.00;;;15.60;61.14
49827;BME280;35715;51.570;6.036;2022-11-11T11:35:12;102939.63;;;15.51;61.29
49827;BME280;35715;51.570;6.036;2022-11-11T11:38:12;102939.03;;;15.43;61.51
49827;BME280;35715;51.570;6.036;2022-11-11T11:40:54;102939.16;;;15.44;61.57
49827;BME280;35715;51.570;6.036;2022-11-11T11:43:38;102935.47;;;15.53;61.57
49827;BME280;35715;51.570;6.036;2022-11-11T11:52:27;102927.97;;;16.00;59.79
49827;BME280;35715;51.570;6.036;2022-11-11T12:00:32;102925.91;;;16.40;59.32
49827;BME280;35715;51.570;6.036;2022-11-11T12:06:21;102926.44;;;16.70;57.98
49827;BME280;35715;51.570;6.036;2022-11-11T12:09:18;102923.22;;;16.96;57.52
49827;BME280;35715;51.570;6.036;2022-11-11T12:17:25;102905.66;;;17.17;55.16
49827;BME280;35715;51.570;6.036;2022-11-11T12:20:00;102910.38;;;17.35;55.42
49827;BME280;35715;51.570;6.036;2022-11-11T12:28:50;102899.13;;;16.77;55.70
49827;BME280;35715;51.570;6.036;2022-11-11T12:34:32;102894.53;;;16.17;57.02
49827;BME280;35715;51.570;6.036;2022-11-11T12:57:04;102875.16;;;15.36;61.04
49827;BME280;35715;51.570;6.036;2022-11-11T13:00:00;102873.13;;;15.32;61.65
49827;BME280;35715;51.570;6.036;2022-11-11T13:02:36;102877.53;;;15.33;61.99
49827;BME280;35715;51.570;6.036;2022-11-11T13:10:47;102867.94;;;15.22;62.70
49827;BME280;35715;51.570;6.036;2022-11-11T13:13:38;102869.00;;;15.14;62.61
49827;BME280;35715;51.570;6.036;2022-11-11T13:16:08;102863.94;;;15.15;62.92
49827;BME280;35715;51.570;6.036;2022-11-11T13:21:08;102876.56;;;15.11;62.89
49827;BME280;35715;51.570;6.036;2022-11-11T13:23:34;102860.06;;;15.10;63.29
49827;BME280;35715;51.570;6.036;2022-11-11T13:26:11;102856.69;;;15.11;63.99
49827;BME280;35715;51.570;6.036;2022-11-11T13:28:46;102870.47;;;15.10;63.69
49827;BME280;35715;51.570;6.036;2022-11-11T13:31:35;102872.16;;;15.10;63.38
49827;BME280;35715;51.570;6.036;2022-11-11T13:34:04;102870.34;;;15.08;63.79
49827;BME280;35715;51.570;6.036;2022-11-11T13:36:47;102871.22;;;15.09;63.75
49827;BME280;35715;51.570;6.036;2022-11-11T13:39:43;102876.97;;;15.05;63.77
49827;BME280;35715;51.570;6.036;2022-11-11T13:42:17;102866.72;;;15.06;64.02
49827;BME280;35715;51.570;6.036;2022-11-11T13:44:53;102867.72;;;15.08;64.42
49827;BME280;35715;51.570;6.036;2022-11-11T13:47:45;102871.66;;;15.03;63.96
49827;BME280;35715;51.570;6.036;2022-11-11T13:50:22;102869.84;;;15.02;64.09
49827;BME280;35715;51.570;6.036;2022-11-11T13:53:02;102873.31;;;15.03;64.54
49827;BME280;35715;51.570;6.036;2022-11-11T13:55:59;102862.81;;;15.01;64.65
49827;BME280;35715;51.570;6.036;2022-11-11T13:58:29;102864.63;;;15.02;64.90
49827;BME280;35715;51.570;6.036;2022-11-11T14:01:01;102868.00;;;15.01;64.54
49827;BME280;35715;51.570;6.036;2022-11-11T14:08:53;102867.75;;;14.98;65.62
49827;BME280;35715;51.570;6.036;2022-11-11T14:13:58;102866.72;;;14.96;64.07
49827;BME280;35715;51.570;6.036;2022-11-11T14:17:15;102871.44;;;14.90;64.00
49827;BME280;35715;51.570;6.036;2022-11-11T14:19:42;102878.16;;;14.88;63.75
49827;BME280;35715;51.570;6.036;2022-11-11T14:22:30;102878.97;;;14.87;63.30
49827;BME280;35715;51.570;6.036;2022-11-11T14:25:16;102876.88;;;14.83;63.43
49827;BME280;35715;51.570;6.036;2022-11-11T14:27:44;102879.34;;;14.81;63.47
49827;BME280;35715;51.570;6.036;2022-11-11T14:30:25;102875.88;;;14.81;63.04
49827;BME280;35715;51.570;6.036;2022-11-11T14:33:06;102875.47;;;14.76;63.65
49827;BME280;35715;51.570;6.036;2022-11-11T14:35:58;102872.47;;;14.71;63.45
49827;BME280;35715;51.570;6.036;2022-11-11T14:57:33;102881.81;;;14.38;64.59
49827;BME280;35715;51.570;6.036;2022-11-11T15:00:03;102886.75;;;14.35;64.38
49827;BME280;35715;51.570;6.036;2022-11-11T15:02:36;102889.88;;;14.31;64.52
49827;BME280;35715;51.570;6.036;2022-11-11T15:05:11;102892.97;;;14.27;64.33
49827;BME280;35715;51.570;6.036;2022-11-11T15:07:52;102891.19;;;14.26;64.62
49827;BME280;35715;51.570;6.036;2022-11-11T15:10:31;102888.31;;;14.23;64.52
49827;BME280;35715;51.570;6.036;2022-11-11T15:16:04;102886.72;;;14.15;65.17
49827;BME280;35715;51.570;6.036;2022-11-11T15:21:19;102888.78;;;13.98;66.28
49827;BME280;35715;51.570;6.036;2022-11-11T15:24:02;102883.94;;;13.93;66.74
49827;BME280;35715;51.570;6.036;2022-11-11T15:37:56;102892.47;;;13.71;67.91
49827;BME280;35715;51.570;6.036;2022-11-11T15:40:25;102891.03;;;13.64;68.40
49827;BME280;35715;51.570;6.036;2022-11-11T15:42:52;102890.63;;;13.60;68.61
49827;BME280;35715;51.570;6.036;2022-11-11T15:45:22;102892.16;;;13.58;68.64
49827;BME280;35715;51.570;6.036;2022-11-11T15:47:48;102895.09;;;13.42;68.92
49827;BME280;35715;51.570;6.036;2022-11-11T15:50:30;102891.56;;;13.41;68.66
49827;BME280;35715;51.570;6.036;2022-11-11T15:52:59;102888.97;;;13.41;68.80